Time;durP1;ratioP1;P1;durP2;ratioP2;P2;SDS_P1;SDS_P2;PMS_P1;PMS_P2;Temp;Humidity;BMP_temperature;BMP_pressure;BME280_temperature;BME280_humidity;BME280_pressure;Samples;Min_cycle;Max_cycle;Signal;HPM_P1;HPM_P2
2021/06/08 06:55:56;;;;;;;16.43;10.03;;;22.20;1.00;;;-143.32;71.97;52366.47;6146163;23;20451;-90
2021/06/08 06:58:23;;;;;;;16.97;10.37;;;22.40;1.00;;;-143.32;70.86;52425.00;6127939;23;20887;-86
2021/06/08 07:00:52;;;;;;;20.13;10.20;;;22.40;99.90;;;-143.32;69.99;52372.50;6127981;23;20907;-86
2021/06/08 07:03:24;;;;;;;11.43;8.80;;;22.70;99.90;;;-143.32;67.69;52305.88;6128183;23;20417;-88
2021/06/08 07:05:52;;;;;;;15.53;9.10;;;23.10;99.90;;;-143.32;65.19;52324.06;6128052;23;20682;-87
2021/06/08 07:08:23;;;;;;;12.50;9.00;;;23.20;99.90;;;-143.32;65.73;52378.56;6128222;23;20406;-87
2021/06/08 07:10:50;;;;;;;13.10;10.57;;;23.20;99.90;;;-143.32;65.43;52370.50;6128044;23;20449;-88
2021/06/08 07:13:18;;;;;;;14.43;9.80;;;23.10;99.90;;;-143.32;68.11;52427.03;6127568;23;20903;-89
2021/06/08 07:15:46;;;;;;;15.33;10.60;;;22.80;99.90;;;-143.32;66.67;52429.06;6127759;23;20446;-87
2021/06/08 07:18:13;;;;;;;12.43;9.40;;;22.80;99.90;;;-143.32;65.24;52370.50;6127434;23;20566;-88
2021/06/08 07:20:41;;;;;;;14.23;10.20;;;23.10;99.90;;;-143.32;65.79;52348.28;6127583;23;20915;-89
2021/06/08 07:23:08;;;;;;;14.13;10.47;;;23.10;99.90;;;-143.32;66.62;52455.31;6127711;23;20411;-88
2021/06/08 07:25:37;;;;;;;20.07;10.67;;;22.90;99.90;;;-143.32;68.87;52443.19;6127351;23;20971;-86
2021/06/08 07:28:06;;;;;;;13.47;9.53;;;22.50;99.90;;;-143.32;67.92;52429.06;6128007;23;20408;-89
2021/06/08 07:30:35;;;;;;;15.30;11.20;;;22.70;99.90;;;-143.32;68.78;52382.63;6127321;23;20432;-88
2021/06/08 07:33:10;;;;;;;17.00;10.77;;;22.60;99.90;;;-143.32;68.05;52388.66;6127557;23;20930;-88
2021/06/08 07:35:46;;;;;;;13.73;10.20;;;22.70;99.90;;;-143.32;67.20;52334.16;6128173;23;20756;-91
2021/06/08 07:38:19;;;;;;;11.87;9.90;;;22.90;99.90;;;-143.32;64.38;52318.00;6128614;23;20436;-87
2021/06/08 07:40:57;;;;;;;16.33;10.93;;;23.40;99.90;;;-143.32;63.89;52307.91;6128399;23;20400;-88
2021/06/08 07:43:29;;;;;;;12.20;9.83;;;23.70;99.90;;;-143.32;63.43;52307.91;6127914;23;20779;-87
2021/06/08 07:46:03;;;;;;;15.90;12.57;;;23.70;99.90;;;-143.32;65.13;52358.38;6127631;23;20875;-88
2021/06/08 07:48:30;;;;;;;15.50;12.07;;;23.30;99.90;;;-143.32;68.68;52380.59;6127800;23;20426;-86
2021/06/08 07:50:59;;;;;;;16.93;11.97;;;22.90;99.90;;;-143.32;71.56;52418.97;6127491;23;20887;-88
2021/06/08 07:53:31;;;;;;;20.63;12.40;;;22.40;99.90;;;-143.32;73.34;52451.25;6129550;23;20768;-90
2021/06/08 07:55:59;;;;;;;21.73;12.30;;;22.00;99.90;;;-143.32;74.43;52477.50;6128170;23;20818;-88
2021/06/08 07:58:26;;;;;;;17.20;12.50;;;21.60;1.00;;;-143.32;75.50;52495.69;6128264;23;20411;-86
2021/06/08 08:00:57;;;;;;;17.80;13.33;;;21.40;1.00;;;-143.32;77.75;52532.03;6128194;23;20416;-87
2021/06/08 08:03:25;;;;;;;23.07;13.60;;;21.10;99.90;;;-143.32;77.52;52550.19;6128274;23;20392;-87
2021/06/08 08:05:55;;;;;;;21.50;13.07;;;20.90;99.90;;;-143.32;77.82;52560.31;6127821;23;20454;-88
2021/06/08 08:08:22;;;;;;;18.70;14.07;;;20.90;99.90;;;-143.32;78.04;52532.03;6128399;23;20897;-87
2021/06/08 08:10:49;;;;;;;23.77;13.37;;;20.80;99.90;;;-143.32;78.79;52602.69;6127997;23;20415;-86
2021/06/08 08:13:21;;;;;;;18.30;13.33;;;20.70;99.90;;;-143.32;79.25;52584.53;6128686;23;20407;-87
2021/06/08 08:15:49;;;;;;;22.77;13.83;;;20.60;99.90;;;-143.32;79.13;52570.41;6126596;23;20851;-87
2021/06/08 08:18:18;;;;;;;15.70;13.80;;;20.60;99.90;;;-143.32;79.14;52552.22;6126818;23;20459;-88
2021/06/08 08:20:49;;;;;;;20.07;13.97;;;20.60;99.90;;;-143.32;78.71;52556.25;6127198;23;20455;-87
2021/06/08 08:23:16;;;;;;;15.43;13.27;;;20.60;99.90;;;-143.32;79.39;52588.56;6127376;23;20439;-87
2021/06/08 08:25:44;;;;;;;17.73;14.83;;;20.60;99.90;;;-143.32;77.98;52647.13;6127292;23;20724;-87
2021/06/08 08:28:11;;;;;;;18.43;13.13;;;20.40;99.90;;;-143.32;78.19;52624.91;6127682;23;20403;-88
2021/06/08 08:30:39;;;;;;;17.97;12.53;;;20.30;99.90;;;-143.32;78.61;52598.66;6127220;23;20483;-87
2021/06/08 08:33:06;;;;;;;19.27;14.40;;;20.40;99.90;;;-143.32;76.22;52538.09;6127908;23;20467;-89
2021/06/08 08:35:50;;;;;;;19.57;13.73;;;20.70;99.90;;;-143.32;75.53;52519.91;6127432;23;20911;-89
2021/06/08 08:38:18;;;;;;;17.27;13.27;;;21.00;99.90;;;-143.32;72.48;52489.63;6127381;23;20436;-88
2021/06/08 08:40:45;;;;;;;19.93;14.00;;;21.70;36.70;;;-143.32;69.84;52435.09;6126921;23;20463;-89
2021/06/08 08:43:12;;;;;;;20.27;12.90;;;22.20;1.00;;;-143.32;69.49;52368.47;6127374;23;20435;-89
2021/06/08 08:45:39;;;;;;;18.30;12.17;;;22.70;1.00;;;-143.32;67.89;52368.47;6127839;23;20411;-88
2021/06/08 08:48:06;;;;;;;13.10;11.50;;;22.90;1.00;;;-143.32;66.34;52315.97;6127317;23;20411;-90
2021/06/08 08:50:33;;;;;;;14.13;11.10;;;23.20;99.90;;;-143.32;64.06;52299.81;6127212;23;20408;-91
2021/06/08 08:53:05;;;;;;;20.73;12.53;;;23.60;99.90;;;-143.32;62.05;52251.38;6126900;23;20408;-91
2021/06/08 08:55:34;;;;;;;11.73;7.93;;;24.00;99.90;;;-143.32;57.04;52358.38;6126985;23;20803;-88
2021/06/08 08:58:04;;;;;;;14.73;9.60;;;24.10;99.90;;;-143.32;60.20;52423.00;6126687;23;20470;-89
2021/06/08 09:00:32;;;;;;;13.00;8.00;;;23.70;99.90;;;-143.32;59.87;52437.13;6126928;23;20411;-89
2021/06/08 09:03:01;;;;;;;9.47;7.37;;;23.40;99.90;;;-143.32;51.84;52542.13;6127738;23;20411;-88
2021/06/08 09:05:34;;;;;;;8.30;7.30;;;23.50;1.00;;;-143.32;51.61;52610.78;6128951;23;20404;-89
2021/06/08 09:08:04;;;;;;;9.47;8.20;;;23.30;1.00;;;-143.32;53.61;52443.19;6126959;23;20403;-89
2021/06/08 09:10:42;;;;;;;12.70;8.30;;;23.60;1.00;;;-143.32;50.48;52493.66;6127523;23;20709;-88
2021/06/08 09:13:09;;;;;;;10.27;7.23;;;24.10;1.00;;;-143.32;47.47;52532.03;6126802;23;20411;-85
2021/06/08 09:15:36;;;;;;;16.97;7.17;;;24.20;1.00;;;-143.32;43.47;52665.31;6126970;23;20733;-87
2021/06/08 09:18:04;;;;;;;9.90;6.10;;;24.70;1.00;;;-143.32;40.90;52725.88;6127586;23;20444;-87
2021/06/08 09:20:38;;;;;;;9.70;7.20;;;25.00;1.00;;;-143.32;40.96;52647.13;6127636;23;20411;-90
2021/06/08 09:23:10;;;;;;;8.33;5.87;;;25.60;1.00;;;-143.32;37.61;52853.09;6128213;23;20445;-86
2021/06/08 09:25:48;;;;;;;9.57;8.17;;;25.60;1.00;;;-143.32;42.41;52802.63;6127159;23;20704;-85
2021/06/08 09:28:31;;;;;;;6.93;6.20;;;25.30;99.90;;;-143.32;43.57;52792.53;6127132;23;20387;-88
2021/06/08 09:31:10;;;;;;;6.70;5.90;;;25.30;1.00;;;-143.32;42.25;52929.84;6125140;23;20891;-87
2021/06/08 09:33:38;;;;;;;8.70;7.33;;;25.00;99.90;;;-143.32;47.03;52941.94;6127169;23;20476;-89
2021/06/08 09:36:10;;;;;;;10.13;9.07;;;24.30;99.90;;;-143.32;50.56;52913.69;6127015;23;20419;-90
2021/06/08 09:38:57;;;;;;;12.97;7.70;;;24.10;99.90;;;-143.32;50.80;52913.69;6126803;23;20392;-88
2021/06/08 09:41:27;;;;;;;12.40;8.87;;;23.90;99.90;;;-143.32;54.78;52836.94;6127868;23;20431;-90
2021/06/08 09:44:00;;;;;;;9.80;7.80;;;23.90;99.90;;;-143.32;55.36;52814.72;6128126;23;20721;-91
2021/06/08 09:46:31;;;;;;;14.53;8.70;;;23.90;99.90;;;-143.32;55.84;52919.75;6126554;23;20396;-91
2021/06/08 09:49:01;;;;;;;12.07;9.27;;;23.60;99.90;;;-143.32;57.17;52921.75;6126687;23;20384;-90
2021/06/08 09:51:47;;;;;;;14.47;9.23;;;23.30;99.90;;;-143.32;56.86;52941.94;6127046;23;20396;-90
2021/06/08 09:54:35;;;;;;;12.27;8.13;;;23.30;99.90;;;-143.32;57.39;52901.56;6127825;23;20391;-92
2021/06/08 09:57:21;;;;;;;11.73;8.10;;;23.30;99.90;;;-143.32;57.62;52859.16;6126631;23;20498;-89
2021/06/08 09:59:52;;;;;;;10.43;8.40;;;23.40;99.90;;;-143.32;58.63;52931.84;6126631;23;20478;-90
2021/06/08 10:02:36;;;;;;;11.13;8.23;;;23.40;99.90;;;-143.32;61.22;52834.94;6126842;23;20427;-90
2021/06/08 10:05:24;;;;;;;11.60;9.00;;;23.30;1.00;;;-143.32;60.65;52843.00;6126731;23;20412;-91
2021/06/08 10:07:53;;;;;;;11.67;8.93;;;23.20;1.00;;;-143.32;60.15;52855.13;6127600;23;20467;-89
2021/06/08 10:10:23;;;;;;;14.37;8.67;;;23.30;1.00;;;-143.32;58.69;52867.22;6126341;23;20422;-89
2021/06/08 10:13:05;;;;;;;10.83;9.33;;;23.30;99.90;;;-143.32;58.91;52865.22;6127578;23;20427;-89
2021/06/08 10:15:38;;;;;;;13.10;9.00;;;23.40;99.90;;;-143.32;58.02;52865.22;6128412;23;20424;-89
2021/06/08 10:18:07;;;;;;;10.73;8.83;;;23.50;99.90;;;-143.32;58.59;52873.28;6129442;23;20981;-89
2021/06/08 10:20:41;;;;;;;9.73;7.50;;;23.50;99.90;;;-143.32;59.00;52867.22;6128502;23;20910;-90
2021/06/08 10:23:25;;;;;;;11.33;8.40;;;23.40;99.90;;;-143.32;59.74;52873.28;6129785;23;20737;-89
2021/06/08 10:25:58;;;;;;;10.10;7.67;;;23.30;99.90;;;-143.32;60.24;52865.22;6128732;23;20419;-89
2021/06/08 10:28:25;;;;;;;9.90;8.13;;;23.30;99.90;;;-143.32;59.78;52863.19;6128644;23;20388;-89
2021/06/08 10:30:54;;;;;;;11.03;8.03;;;23.40;99.90;;;-143.32;59.31;52845.03;6128380;23;20406;-88
2021/06/08 10:33:23;;;;;;;9.40;7.77;;;23.40;99.90;;;-143.32;58.24;52830.88;6128414;23;20399;-87
2021/06/08 10:35:50;;;;;;;8.40;7.60;;;23.50;99.90;;;-143.32;57.83;52865.22;6128404;23;20415;-89
2021/06/08 10:38:18;;;;;;;8.30;7.40;;;23.50;99.90;;;-143.32;59.28;52830.88;6129127;23;20451;-89
2021/06/08 10:40:48;;;;;;;10.57;8.27;;;23.50;99.90;;;-143.32;61.84;52816.75;6128596;23;20411;-89
2021/06/08 10:44:05;;;;;;;10.90;8.00;;;23.40;1.00;;;-143.32;59.46;52865.22;6128252;23;20388;-88
2021/06/08 10:46:38;;;;;;;11.30;9.23;;;23.50;1.00;;;-143.32;57.99;52927.81;6128016;23;20446;-89
2021/06/08 10:49:06;;;;;;;12.67;8.37;;;23.30;99.90;;;-143.32;59.50;52849.06;6128535;23;20380;-89
2021/06/08 10:51:35;;;;;;;19.30;7.93;;;23.50;99.90;;;-143.32;58.83;52855.13;6128763;23;20910;-91
2021/06/08 10:54:05;;;;;;;10.90;7.00;;;23.50;99.90;;;-143.32;59.53;52881.38;6127925;23;20895;-89
2021/06/08 10:56:34;;;;;;;9.27;7.40;;;23.50;99.90;;;-143.32;58.88;52863.19;6127914;23;20921;-89
2021/06/08 10:59:03;;;;;;;10.17;9.03;;;23.50;99.90;;;-143.32;59.84;52879.34;6128205;23;20431;-89
2021/06/08 11:01:51;;;;;;;15.23;9.90;;;23.50;99.90;;;-143.32;61.51;52893.50;6128133;23;20395;-89
2021/06/08 11:04:24;;;;;;;13.53;8.80;;;23.20;99.90;;;-143.32;62.96;52903.59;6121682;23;20411;-89
2021/06/08 11:06:56;;;;;;;12.00;8.73;;;23.10;1.00;;;-143.32;63.40;52883.38;6128468;23;20443;-89
2021/06/08 11:09:33;;;;;;;9.77;7.60;;;23.10;1.00;;;-143.32;61.23;52875.31;6128033;23;20392;-88
2021/06/08 11:12:04;;;;;;;9.60;7.63;;;23.20;1.00;;;-143.32;59.08;52907.63;6128058;23;20392;-89
2021/06/08 11:15:00;;;;;;;16.50;7.40;;;23.30;1.00;;;-143.32;59.28;52875.31;6127956;23;20396;-88
2021/06/08 11:17:42;;;;;;;11.07;7.80;;;23.40;99.90;;;-143.32;60.28;52873.28;6129133;23;20431;-92
2021/06/08 11:20:26;;;;;;;9.47;7.70;;;23.40;99.90;;;-143.32;60.28;52903.59;6129309;23;20412;-92
2021/06/08 11:23:01;;;;;;;11.10;6.83;;;23.30;99.90;;;-143.32;60.51;52901.56;6129473;23;20851;-88
2021/06/08 11:25:57;;;;;;;11.10;7.43;;;23.20;99.90;;;-143.32;61.05;52927.81;6128813;23;20673;-91
2021/06/08 11:28:42;;;;;;;12.83;8.03;;;23.00;99.90;;;-143.32;61.21;52958.09;6127536;23;20422;-92
2021/06/08 11:31:11;;;;;;;10.53;7.40;;;22.90;1.00;;;-143.32;61.01;52935.91;6127920;23;20890;-90
2021/06/08 11:33:42;;;;;;;9.07;7.40;;;23.00;1.00;;;-143.32;58.83;52915.69;6127631;23;20423;-88
2021/06/08 11:36:34;;;;;;;10.70;7.33;;;23.20;1.00;;;-143.32;57.58;52879.34;6128958;23;20398;-92
2021/06/08 11:39:27;;;;;;;15.90;7.97;;;23.50;99.90;;;-143.32;56.30;52915.69;6128737;23;20408;-90
2021/06/08 11:45:37;;;;;;;10.00;7.70;;;23.90;99.90;;;-143.32;57.20;52826.84;6127970;23;20383;-92
2021/06/08 11:48:29;;;;;;;19.87;7.27;;;24.20;99.90;;;-143.32;55.59;52820.78;6128339;23;20411;-89
2021/06/08 11:50:59;;;;;;;25.00;7.67;;;24.10;99.90;;;-143.32;57.66;52828.88;6127973;23;20760;-92
2021/06/08 11:53:26;;;;;;;9.27;7.13;;;24.00;99.90;;;-143.32;54.71;52847.03;6127809;23;20408;-89
2021/06/08 11:56:04;;;;;;;11.13;7.57;;;24.10;99.90;;;-143.32;54.76;52859.16;6128091;23;20474;-91
2021/06/08 11:58:33;;;;;;;8.90;7.30;;;24.10;99.90;;;-143.32;56.13;52917.72;6127959;23;20443;-92
2021/06/08 12:01:00;;;;;;;9.93;6.90;;;24.00;99.90;;;-143.32;55.68;52883.38;6128427;23;20513;-91
2021/06/08 12:03:31;;;;;;;15.13;7.00;;;23.90;99.90;;;-143.32;55.90;52875.31;6128567;23;20415;-93
2021/06/08 12:06:01;;;;;;;14.93;7.67;;;23.90;99.90;;;-143.32;56.86;52822.81;6128545;23;20420;-91
2021/06/08 12:09:10;;;;;;;7.83;6.23;;;24.00;99.90;;;-143.32;55.43;52869.25;6129287;23;20392;-92
2021/06/08 12:11:37;;;;;;;6.40;5.80;;;24.10;99.90;;;-143.32;55.69;52867.22;6135252;23;20411;-92
2021/06/08 12:14:08;;;;;;;9.10;6.40;;;24.10;99.90;;;-143.32;56.89;52863.19;6129901;23;20403;-91
2021/06/08 12:16:38;;;;;;;12.00;7.27;;;23.90;99.90;;;-143.32;55.50;52907.63;6134676;23;20386;-94
2021/06/08 12:22:00;;;;;;;7.97;6.50;;;23.80;99.90;;;-143.32;54.01;52927.81;6140968;23;20416;-91
2021/06/08 12:24:32;;;;;;;12.63;7.30;;;23.80;99.90;;;-143.32;53.43;52994.47;6136743;23;20697;-94
2021/06/08 12:27:04;;;;;;;9.10;5.90;;;23.60;99.90;;;-143.32;55.93;52907.63;6139528;23;20479;-93
2021/06/08 12:29:36;;;;;;;9.10;6.70;;;23.70;99.90;;;-143.32;52.87;52984.38;6140990;23;20411;-92
2021/06/08 12:32:07;;;;;;;11.03;6.30;;;23.80;99.90;;;-143.32;53.04;52982.34;6132239;23;20824;-91
2021/06/08 12:34:39;;;;;;;14.00;6.40;;;23.80;99.90;;;-143.32;53.35;52948.00;6134725;23;20399;-93
2021/06/08 12:37:07;;;;;;;8.17;5.80;;;23.90;99.90;;;-143.32;54.43;52887.44;6127049;23;20435;-92
2021/06/08 12:39:36;;;;;;;11.73;6.07;;;24.10;99.90;;;-143.32;54.39;52857.13;6138849;23;20392;-92
2021/06/08 12:42:12;;;;;;;11.13;6.70;;;24.30;99.90;;;-143.32;51.07;52883.38;6127676;23;20404;-89
2021/06/08 12:44:40;;;;;;;7.70;5.10;;;24.40;99.90;;;-143.32;53.55;52941.94;6127171;23;20789;-88
2021/06/08 12:47:07;;;;;;;12.70;6.83;;;24.20;99.90;;;-143.32;53.82;52948.00;6127408;23;20407;-91
2021/06/08 12:49:37;;;;;;;16.70;6.20;;;24.10;99.90;;;-143.32;52.59;52933.88;6127493;23;20407;-90
2021/06/08 12:52:07;;;;;;;9.30;6.27;;;24.10;99.90;;;-143.32;51.57;52954.06;6127483;23;20891;-90
2021/06/08 12:54:38;;;;;;;11.17;6.33;;;24.20;99.90;;;-143.32;53.06;52891.47;6127125;23;20482;-90
2021/06/08 12:57:08;;;;;;;9.80;6.43;;;24.30;99.90;;;-143.32;52.57;52925.78;6127540;23;20494;-90
2021/06/08 12:59:39;;;;;;;11.37;5.43;;;24.30;99.90;;;-143.32;53.41;52909.66;6127313;23;20414;-90
2021/06/08 13:02:10;;;;;;;11.50;6.60;;;24.30;99.90;;;-143.32;51.96;52954.06;6127348;23;20403;-88
2021/06/08 13:04:41;;;;;;;8.97;6.47;;;24.30;99.90;;;-143.32;52.25;52903.59;6127001;23;20934;-90
2021/06/08 13:07:14;;;;;;;9.90;6.63;;;24.30;99.90;;;-143.32;51.81;52929.84;6127643;23;20439;-90
2021/06/08 13:17:26;;;;;;;8.77;5.53;;;24.50;99.90;;;-143.32;51.41;52871.28;6127061;23;20532;-90
2021/06/08 13:19:54;;;;;;;8.43;6.43;;;24.70;99.90;;;-143.32;51.78;52952.06;6127140;23;20419;-88
2021/06/08 13:22:25;;;;;;;11.03;5.87;;;24.50;99.90;;;-143.32;52.41;52954.06;6127182;23;20418;-91
2021/06/08 13:24:54;;;;;;;13.03;7.10;;;24.20;99.90;;;-143.32;53.62;52937.91;6126960;23;20938;-90
2021/06/08 13:27:25;;;;;;;10.63;5.77;;;24.20;99.90;;;-143.32;51.42;52976.28;6127248;23;20407;-92
2021/06/08 13:29:52;;;;;;;7.33;5.77;;;24.30;99.90;;;-143.32;50.88;52956.09;6127307;23;20475;-92
2021/06/08 13:32:26;;;;;;;7.37;6.30;;;24.30;99.90;;;-143.32;49.26;52988.41;6127274;23;20407;-92
2021/06/08 13:35:11;;;;;;;6.10;5.53;;;24.30;99.90;;;-143.32;49.97;52966.19;6126772;23;20396;-89
2021/06/08 13:37:43;;;;;;;12.10;6.77;;;24.40;99.90;;;-143.32;50.30;52909.66;6126990;23;20754;-88
2021/06/08 13:40:17;;;;;;;11.03;6.30;;;24.60;99.90;;;-143.32;51.02;52824.81;6126765;23;20395;-88
2021/06/08 13:43:03;;;;;;;8.33;6.53;;;24.90;99.90;;;-143.32;48.37;52952.06;6126380;23;20442;-89
2021/06/08 13:45:39;;;;;;;7.33;6.20;;;24.80;99.90;;;-143.32;50.72;52966.19;6126952;23;20388;-88
2021/06/08 13:48:37;;;;;;;5.90;4.93;;;24.50;99.90;;;-143.32;50.75;52964.16;6126690;23;20391;-89
2021/06/08 13:51:14;;;;;;;7.07;5.10;;;24.50;99.90;;;-143.32;49.47;52980.31;6037302;23;20474;-91
2021/06/08 13:53:44;;;;;;;8.07;5.80;;;24.50;99.90;;;-143.32;49.78;53010.63;6113518;23;20415;-90
2021/06/08 13:56:16;;;;;;;10.43;5.50;;;24.40;99.90;;;-143.32;49.71;53024.75;6126181;23;20744;-90
2021/06/08 14:01:33;;;;;;;9.00;6.03;;;24.20;99.90;;;-143.32;49.34;52990.41;6126824;23;20403;-89
2021/06/08 14:04:08;;;;;;;6.83;5.23;;;24.30;99.90;;;-143.32;49.16;53024.75;6127180;23;20407;-90
2021/06/08 14:06:38;;;;;;;6.17;4.93;;;24.30;99.90;;;-143.32;51.00;52998.50;6127419;23;20395;-88
2021/06/08 14:09:10;;;;;;;7.80;5.00;;;24.20;99.90;;;-143.32;52.36;52966.19;6126622;23;20423;-88
2021/06/08 14:11:42;;;;;;;5.80;4.93;;;24.20;99.90;;;-143.32;50.55;53014.66;6126957;23;20410;-87
2021/06/08 14:14:13;;;;;;;5.50;4.53;;;24.30;99.90;;;-143.32;51.26;53030.81;6127056;23;20736;-90
2021/06/08 14:16:42;;;;;;;5.63;4.83;;;24.10;99.90;;;-143.32;50.79;52992.44;6127682;23;20455;-90
2021/06/08 14:19:10;;;;;;;6.70;5.10;;;24.20;99.90;;;-143.32;51.66;52984.38;6127670;23;20419;-87
2021/06/08 14:21:38;;;;;;;6.50;5.53;;;24.30;99.90;;;-143.32;50.75;53075.25;6126616;23;20756;-93
2021/06/08 14:24:07;;;;;;;4.93;4.43;;;24.00;99.90;;;-143.32;50.68;53081.31;6127648;23;20404;-89
2021/06/08 14:26:35;;;;;;;5.30;4.80;;;24.00;99.90;;;-143.32;51.83;53032.84;6127407;23;20403;-89
2021/06/08 14:30:40;;;;;;;;;;;;;;;;;;;;;
2021/06/08 14:33:25;;;;;;;6.73;4.87;;;24.20;99.90;;;-143.32;49.70;53008.59;6013448;23;20747;-87
2021/06/08 14:39:37;;;;;;;5.90;5.30;;;24.80;99.90;;;-143.32;49.39;52851.09;6126383;23;20403;-91
2021/06/08 14:42:04;;;;;;;5.00;4.50;;;25.20;99.90;;;-143.32;48.45;52855.13;6126798;23;20410;-90
2021/06/08 14:44:31;;;;;;;5.70;5.10;;;25.50;99.90;;;-143.32;47.27;52869.25;6126978;23;20407;-89
2021/06/08 14:46:58;;;;;;;6.77;4.80;;;25.60;99.90;;;-143.32;47.11;52877.34;6126232;23;20458;-90
2021/06/08 14:49:25;;;;;;;8.00;5.30;;;25.60;99.90;;;-143.32;45.42;52925.78;6127558;23;20423;-89
2021/06/08 14:51:51;;;;;;;5.83;5.20;;;25.60;99.90;;;-143.32;44.38;52931.84;6126334;23;20411;-89
2021/06/08 14:54:18;;;;;;;6.03;4.70;;;25.60;99.90;;;-143.32;46.73;52909.66;6128810;23;20408;-90
2021/06/08 14:56:46;;;;;;;9.73;5.50;;;25.50;99.90;;;-143.32;47.48;52905.59;6126234;23;20415;-90
2021/06/08 14:59:13;;;;;;;8.73;5.47;;;25.40;99.90;;;-143.32;45.43;52939.94;6127217;23;20676;-90
2021/06/08 15:01:39;;;;;;;6.20;5.60;;;25.30;99.90;;;-143.32;45.51;52978.31;6128359;23;20462;-92
2021/06/08 15:04:06;;;;;;;8.10;5.47;;;25.20;99.90;;;-143.32;48.95;53008.59;6128271;23;20392;-88
2021/06/08 15:06:33;;;;;;;6.03;5.20;;;25.00;99.90;;;-143.32;48.70;52996.47;6128591;23;20407;-87
2021/06/08 15:08:59;;;;;;;8.43;4.80;;;24.80;99.90;;;-143.32;49.03;52976.28;6127802;23;20414;-87
2021/06/08 15:11:26;;;;;;;5.47;4.93;;;24.90;99.90;;;-143.32;49.48;53030.81;6128739;23;20756;-92
2021/06/08 15:13:54;;;;;;;8.70;5.10;;;24.80;99.90;;;-143.32;51.12;52952.06;6128239;23;20410;-87
2021/06/08 15:16:20;;;;;;;10.93;5.60;;;24.80;99.90;;;-143.32;50.35;52956.09;6128454;23;20450;-88
2021/06/08 15:18:47;;;;;;;9.30;5.70;;;25.00;99.90;;;-143.32;51.43;52937.91;6128068;23;20454;-88
2021/06/08 15:21:14;;;;;;;8.97;5.43;;;25.00;99.90;;;-143.32;51.47;52917.72;6128207;23;20411;-88
2021/06/08 15:23:44;;;;;;;7.77;5.57;;;24.90;99.90;;;-143.32;51.59;52960.13;6128488;23;20407;-93
2021/06/08 15:26:11;;;;;;;7.60;6.10;;;24.90;99.90;;;-143.32;51.66;53016.69;6130084;23;20411;-91
2021/06/08 15:32:22;;;;;;;6.53;5.73;;;24.50;99.90;;;-143.32;54.06;53042.94;6129207;23;20446;-88
2021/06/08 15:43:43;;;;;;;7.83;6.00;;;24.20;99.90;;;-143.32;53.82;52984.38;6027031;23;20775;-91
2021/06/08 16:26:19;;;;;;;7.37;5.40;;;24.20;99.90;;;-143.32;56.74;53036.88;5794669;24;20407;-92
2021/06/08 16:28:47;;;;;;;9.20;6.80;;;24.20;99.90;;;-143.32;60.78;53048.97;5922389;23;20437;-91
2021/06/08 16:31:45;;;;;;;11.20;8.10;;;24.00;99.90;;;-143.32;62.56;53036.88;6097258;23;20393;-90
2021/06/08 16:38:00;;;;;;;10.70;8.57;;;23.70;1.00;;;-143.32;62.84;53020.72;6186183;23;20950;-88
2021/06/08 16:40:55;;;;;;;;;;;;;;;;;;;;;
2021/06/08 16:43:39;;;;;;;11.00;9.40;;;23.50;1.00;;;-143.32;63.65;53081.31;6187197;23;20367;-90
2021/06/08 16:46:13;;;;;;;12.27;9.70;;;23.40;1.00;;;-143.32;63.07;53000.50;6187246;23;20441;-89
2021/06/08 16:48:41;;;;;;;11.30;7.60;;;23.60;1.00;;;-143.32;64.19;52986.38;6186453;23;20378;-88
2021/06/08 16:51:14;;;;;;;9.47;7.57;;;23.70;10.90;;;-143.32;63.80;52946.00;6186691;23;20386;-93
2021/06/08 16:57:22;;;;;;;16.80;10.07;;;24.10;1.00;;;-143.32;61.43;53016.69;6186464;23;20801;-90
2021/06/08 16:59:48;;;;;;;8.93;7.40;;;24.00;1.00;;;-143.32;62.54;53012.63;6186930;23;20951;-91
2021/06/08 17:02:17;;;;;;;8.37;7.47;;;23.90;1.00;;;-143.32;61.06;53030.81;6186865;23;20496;-90
2021/06/08 17:04:43;;;;;;;10.03;8.53;;;23.90;1.00;;;-143.32;61.91;53067.16;6186766;23;20397;-91
2021/06/08 17:07:15;;;;;;;10.23;7.87;;;23.70;1.00;;;-143.32;62.78;53032.84;6186540;23;20437;-91
2021/06/08 17:09:43;;;;;;;14.40;9.00;;;23.60;1.00;;;-143.32;60.97;53073.22;6188164;23;20492;-89
2021/06/08 17:15:50;;;;;;;12.90;8.33;;;23.60;1.00;;;-143.32;62.44;53119.66;6186364;23;20489;-89
2021/06/08 17:18:19;;;;;;;12.87;7.87;;;23.40;1.00;;;-143.32;64.52;53081.31;6185863;23;20468;-89
2021/06/08 17:20:46;;;;;;;10.10;7.57;;;23.40;1.00;;;-143.32;63.76;53085.34;6186267;23;20892;-89
2021/06/08 17:23:13;;;;;;;10.77;8.40;;;23.40;1.00;;;-143.32;63.74;53077.25;6185688;23;20416;-89
2021/06/08 17:25:40;;;;;;;11.40;8.90;;;23.40;1.00;;;-143.32;63.20;53107.56;6186329;23;20612;-90
2021/06/08 17:28:46;;;;;;;11.30;8.63;;;23.40;1.00;;;-143.32;63.75;53099.47;6190493;23;20401;-90
2021/06/08 17:31:15;;;;;;;11.33;8.10;;;23.30;1.00;;;-143.32;63.75;53131.78;6133753;23;20757;-89
2021/06/08 17:33:43;;;;;;;12.83;8.33;;;23.20;2.60;;;-143.32;65.18;53099.47;6186097;23;20409;-90
2021/06/08 17:36:34;;;;;;;11.13;8.10;;;23.20;91.10;;;-143.32;64.02;53141.88;6187419;23;20413;-89
2021/06/08 17:39:01;;;;;;;11.10;8.93;;;23.20;20.00;;;-143.32;64.43;53131.78;6161821;23;20487;-90
2021/06/08 17:41:27;;;;;;;13.60;10.00;;;23.20;88.30;;;-143.32;63.63;53107.56;6186198;23;20406;-88
2021/06/08 17:43:54;;;;;;;12.00;8.60;;;23.40;36.70;;;-143.32;64.07;53079.28;6185987;23;20936;-91
2021/06/08 17:46:23;;;;;;;14.40;8.60;;;23.30;18.10;;;-143.32;64.02;53105.53;6186091;23;20471;-90
2021/06/08 17:48:54;;;;;;;11.37;8.43;;;23.30;49.10;;;-143.32;62.75;53178.25;6185839;23;20402;-89
2021/06/08 17:51:21;;;;;;;12.43;9.30;;;23.20;1.00;;;-143.32;63.21;53123.72;6185653;23;20397;-89
2021/06/08 17:53:48;;;;;;;11.90;8.57;;;23.10;1.00;;;-143.32;63.13;53156.03;6187093;23;20441;-90
2021/06/08 17:56:16;;;;;;;9.20;8.30;;;23.00;1.00;;;-143.32;62.96;53190.34;6185713;23;20405;-90
2021/06/08 17:58:42;;;;;;;14.83;8.67;;;23.00;1.00;;;-143.32;63.13;53198.44;6186346;23;20449;-90
2021/06/08 18:01:09;;;;;;;12.10;9.10;;;23.00;1.00;;;-143.32;63.38;53156.03;6186255;23;20398;-90
2021/06/08 18:03:36;;;;;;;14.57;10.43;;;23.10;1.00;;;-143.32;63.61;53143.91;6185961;23;20452;-90
2021/06/08 18:06:05;;;;;;;11.87;9.23;;;23.10;6.40;;;-143.32;63.72;53170.16;6186126;23;20476;-91
2021/06/08 18:08:34;;;;;;;13.30;9.07;;;23.10;1.00;;;-143.32;63.62;53174.19;6185961;23;20460;-90
2021/06/08 18:11:04;;;;;;;13.90;9.73;;;22.90;31.40;;;-143.32;64.36;53184.28;6186560;23;20402;-90
2021/06/08 18:13:31;;;;;;;11.47;8.67;;;22.90;28.40;;;-143.32;63.75;53188.34;6185950;23;20398;-91
2021/06/08 18:16:08;;;;;;;13.17;8.47;;;22.90;1.00;;;-143.32;64.23;53206.50;6186104;23;20406;-90
2021/06/08 18:18:36;;;;;;;9.23;8.17;;;22.80;6.20;;;-143.32;64.60;53200.44;6186634;23;20896;-91
2021/06/08 18:21:13;;;;;;;15.77;10.00;;;22.60;63.60;;;-143.32;65.33;53196.41;6186155;23;20496;-91
2021/06/08 18:23:44;;;;;;;15.30;9.90;;;22.70;99.90;;;-143.32;65.99;53202.47;6185163;23;20408;-90
2021/06/08 18:26:12;;;;;;;10.77;9.67;;;22.70;99.90;;;-143.32;66.33;53168.13;6186065;23;20439;-92
2021/06/08 18:28:50;;;;;;;13.73;9.10;;;22.60;99.90;;;-143.32;66.60;53162.09;6185589;23;20412;-91
2021/06/08 18:31:18;;;;;;;12.17;10.40;;;22.60;99.90;;;-143.32;66.70;53186.31;6186113;23;20394;-91
2021/06/08 18:33:49;;;;;;;12.10;8.70;;;22.60;99.90;;;-143.32;67.11;53176.22;6187223;23;20409;-90
2021/06/08 18:36:21;;;;;;;13.73;10.10;;;22.60;99.90;;;-143.32;67.65;53170.16;6188140;23;20410;-90
2021/06/08 18:38:49;;;;;;;16.27;9.20;;;22.50;99.90;;;-143.32;67.58;53147.94;6187873;23;20440;-90
2021/06/08 18:41:53;;;;;;;13.33;9.97;;;22.50;99.90;;;-143.32;67.38;53182.28;6187722;23;20500;-91
2021/06/08 18:44:23;;;;;;;15.90;10.37;;;22.50;99.90;;;-143.32;67.89;53194.41;6097647;23;20411;-90
2021/06/08 18:46:52;;;;;;;14.50;10.53;;;22.50;99.90;;;-143.32;68.46;53186.31;6096839;23;20408;-91